createdAt,value
2022-12-19T00:01:38.166Z,12.30
2022-12-19T00:04:08.981Z,12.50
2022-12-19T00:06:38.024Z,12.70
2022-12-19T00:09:10.993Z,12.60
2022-12-19T00:11:38.764Z,12.60
2022-12-19T00:14:06.121Z,12.50
2022-12-19T00:16:33.464Z,12.50
2022-12-19T00:19:01.688Z,12.60
2022-12-19T00:21:34.804Z,12.60
2022-12-19T00:24:20.514Z,12.80
2022-12-19T00:26:49.257Z,12.80
2022-12-19T00:29:16.535Z,13.00
2022-12-19T00:31:44.755Z,12.70
2022-12-19T00:34:14.683Z,12.70
2022-12-19T00:36:41.588Z,12.70
2022-12-19T00:39:10.274Z,12.80
2022-12-19T00:41:41.901Z,12.70
2022-12-19T00:44:15.947Z,12.90
2022-12-19T00:46:44.562Z,13.00
2022-12-19T00:49:20.309Z,13.20
2022-12-19T00:51:47.216Z,13.20
2022-12-19T00:54:14.506Z,13.20
2022-12-19T00:56:42.248Z,13.30
2022-12-19T00:59:10.679Z,13.30
2022-12-19T01:01:41.354Z,13.30
2022-12-19T01:04:29.829Z,13.40
2022-12-19T01:07:02.118Z,13.50
2022-12-19T01:09:34.690Z,13.40
2022-12-19T01:12:23.995Z,13.40
2022-12-19T01:14:56.408Z,13.50
2022-12-19T01:17:35.508Z,13.50
2022-12-19T01:20:13.758Z,13.40
2022-12-19T01:22:40.654Z,13.40
2022-12-19T01:25:07.842Z,13.40
2022-12-19T01:27:34.843Z,13.50
2022-12-19T01:30:02.168Z,13.60
2022-12-19T01:32:29.134Z,13.60
2022-12-19T01:34:56.129Z,13.60
2022-12-19T01:37:23.010Z,13.50
2022-12-19T01:39:49.915Z,13.40
2022-12-19T01:42:23.497Z,13.50
2022-12-19T01:45:33.119Z,13.80
2022-12-19T01:48:11.413Z,13.90
2022-12-19T01:50:51.468Z,14.00
2022-12-19T01:53:35.773Z,13.80
2022-12-19T01:56:09.664Z,13.60
2022-12-19T01:58:39.788Z,13.90
2022-12-19T02:01:06.794Z,14.00
2022-12-19T02:03:36.172Z,14.00
2022-12-19T02:06:05.665Z,14.10
2022-12-19T02:08:34.689Z,13.80
2022-12-19T02:11:01.931Z,13.90
2022-12-19T02:13:30.069Z,13.90
2022-12-19T02:16:13.661Z,14.00
2022-12-19T02:18:52.888Z,13.80
2022-12-19T02:21:24.388Z,13.80
2022-12-19T02:24:14.377Z,14.00
2022-12-19T02:26:48.395Z,14.10
2022-12-19T02:29:42.620Z,14.10
2022-12-19T02:32:19.361Z,14.10
2022-12-19T02:34:53.698Z,13.90
2022-12-19T02:37:28.067Z,14.00
2022-12-19T02:40:06.789Z,14.00
2022-12-19T02:42:42.047Z,14.00
2022-12-19T02:45:11.820Z,14.00
2022-12-19T02:47:43.748Z,14.20
2022-12-19T02:50:12.083Z,14.00
2022-12-19T02:52:39.907Z,14.10
2022-12-19T02:55:11.168Z,14.00
2022-12-19T02:57:44.534Z,13.90
2022-12-19T03:00:19.955Z,14.00
2022-12-19T03:03:00.510Z,14.10
2022-12-19T03:05:51.630Z,14.20
2022-12-19T03:08:33.888Z,14.30
2022-12-19T03:11:05.203Z,14.50
2022-12-19T03:13:34.296Z,14.40
2022-12-19T03:16:03.430Z,14.30
2022-12-19T03:18:32.954Z,14.30
2022-12-19T03:21:15.624Z,14.30
2022-12-19T03:23:43.702Z,14.30
2022-12-19T03:26:16.101Z,14.20
2022-12-19T03:28:58.452Z,14.20
2022-12-19T03:31:29.185Z,14.10
2022-12-19T03:34:01.063Z,14.10
2022-12-19T03:36:33.439Z,14.10
2022-12-19T03:39:06.546Z,14.20
2022-12-19T03:41:56.359Z,14.00
2022-12-19T03:44:26.778Z,14.00
2022-12-19T03:47:22.530Z,14.00
2022-12-19T03:49:50.333Z,14.00
2022-12-19T03:52:32.324Z,13.80
2022-12-19T03:55:24.369Z,13.70
2022-12-19T03:57:58.623Z,13.90
2022-12-19T04:00:26.951Z,13.90
2022-12-19T04:02:56.604Z,14.00
2022-12-19T04:05:28.172Z,14.10
2022-12-19T04:08:03.103Z,14.20
2022-12-19T04:10:30.823Z,14.30
2022-12-19T04:13:08.692Z,14.40
2022-12-19T04:15:51.659Z,14.50
2022-12-19T04:18:20.806Z,14.40
2022-12-19T04:21:00.103Z,14.40
2022-12-19T04:23:45.465Z,14.50
2022-12-19T04:26:16.337Z,14.40
2022-12-19T04:28:50.867Z,14.60
2022-12-19T04:31:20.010Z,14.60
2022-12-19T04:33:46.971Z,14.70
2022-12-19T04:36:13.917Z,14.60
2022-12-19T04:38:41.087Z,14.70
2022-12-19T04:41:08.034Z,14.90
2022-12-19T04:43:35.020Z,14.70
2022-12-19T04:46:02.026Z,14.80
2022-12-19T04:48:28.947Z,14.90
2022-12-19T04:50:56.445Z,14.90
2022-12-19T04:53:23.348Z,15.00
2022-12-19T04:55:50.235Z,15.00
2022-12-19T04:58:21.674Z,14.80
2022-12-19T05:00:49.200Z,14.80
2022-12-19T05:03:16.094Z,14.70
2022-12-19T05:05:43.512Z,14.70
2022-12-19T05:08:10.481Z,14.90
2022-12-19T05:10:37.872Z,14.80
2022-12-19T05:13:04.818Z,14.90
2022-12-19T05:15:31.785Z,14.90
2022-12-19T05:17:58.641Z,14.90
2022-12-19T05:20:25.543Z,14.40
2022-12-19T05:22:52.506Z,14.40
2022-12-19T05:25:19.404Z,14.50
2022-12-19T05:27:46.334Z,14.60
2022-12-19T05:30:13.734Z,14.60
2022-12-19T05:32:40.611Z,14.70
2022-12-19T05:35:08.376Z,14.70
2022-12-19T05:37:35.322Z,14.70
2022-12-19T05:40:02.480Z,14.80
2022-12-19T05:42:29.421Z,14.80
2022-12-19T05:44:56.359Z,14.70
2022-12-19T05:47:23.244Z,14.60
2022-12-19T05:49:50.137Z,14.70
2022-12-19T05:52:17.092Z,14.80
2022-12-19T05:54:44.166Z,14.90
2022-12-19T05:57:11.241Z,15.00
2022-12-19T05:59:38.126Z,14.90
2022-12-19T06:02:05.192Z,14.70
2022-12-19T06:04:32.249Z,14.50
2022-12-19T06:06:59.204Z,14.40
2022-12-19T06:09:26.340Z,14.50
2022-12-19T06:11:53.520Z,14.40
2022-12-19T06:14:20.633Z,14.40
2022-12-19T06:16:47.574Z,14.20
2022-12-19T06:19:14.609Z,14.10
2022-12-19T06:21:47.926Z,14.30
2022-12-19T06:24:15.351Z,14.50
2022-12-19T06:26:42.435Z,14.40
2022-12-19T06:29:09.540Z,14.50
2022-12-19T06:31:36.481Z,14.40
2022-12-19T06:34:03.442Z,14.40
2022-12-19T06:36:31.221Z,14.30
2022-12-19T06:38:58.953Z,14.30
2022-12-19T06:41:45.014Z,14.60
2022-12-19T06:44:14.208Z,14.90
2022-12-19T06:46:42.244Z,14.90
2022-12-19T06:49:11.149Z,15.00
2022-12-19T06:51:38.119Z,14.90
2022-12-19T06:54:05.263Z,14.90
2022-12-19T06:56:37.930Z,15.00
2022-12-19T06:59:06.119Z,14.80
2022-12-19T07:01:57.092Z,14.80
2022-12-19T07:04:36.113Z,14.90
2022-12-19T07:07:03.390Z,14.80
2022-12-19T15:49:19.243Z,16.30
2022-12-19T15:51:47.222Z,16.40
2022-12-19T15:54:47.877Z,16.40
2022-12-19T15:57:03.132Z,16.40
2022-12-19T15:59:38.053Z,16.10
2022-12-19T16:02:16.184Z,16.20
2022-12-19T16:04:44.040Z,16.40
2022-12-19T16:07:19.472Z,16.40
2022-12-19T16:09:46.637Z,16.50
2022-12-19T16:12:20.472Z,16.50
2022-12-19T16:14:55.639Z,16.40
2022-12-19T16:17:24.434Z,16.40
2022-12-19T16:19:51.629Z,16.40
2022-12-19T16:22:27.723Z,16.40
2022-12-19T16:24:55.386Z,16.40
2022-12-19T16:27:28.501Z,16.30
2022-12-19T16:29:58.490Z,16.10
2022-12-19T16:32:25.520Z,16.10
2022-12-19T16:34:53.609Z,16.20
2022-12-19T16:37:20.873Z,16.30
2022-12-19T16:39:47.841Z,16.20
2022-12-19T16:42:18.465Z,16.20
2022-12-19T16:44:47.116Z,16.20
2022-12-19T16:47:16.656Z,16.30
2022-12-19T16:49:44.731Z,16.30
2022-12-19T16:52:11.833Z,16.30
2022-12-19T16:54:39.483Z,16.40
2022-12-19T16:57:15.984Z,16.40
2022-12-19T16:59:43.037Z,16.30
2022-12-19T17:02:37.164Z,16.40
2022-12-19T17:05:04.601Z,16.30
2022-12-19T17:07:32.257Z,16.30
2022-12-19T17:09:59.506Z,16.30
2022-12-19T17:12:28.408Z,16.30
2022-12-19T17:14:55.382Z,16.40
2022-12-19T17:17:22.352Z,16.40
2022-12-19T17:19:49.600Z,16.20
2022-12-19T17:22:18.884Z,16.20
2022-12-19T17:24:47.223Z,16.30
2022-12-19T17:27:14.476Z,16.20
2022-12-19T17:29:41.545Z,16.20
2022-12-19T17:32:19.983Z,16.30
2022-12-19T17:34:50.819Z,16.20
2022-12-19T17:37:17.999Z,16.20
2022-12-19T17:39:44.923Z,16.20
2022-12-19T17:42:20.516Z,16.20
2022-12-19T17:44:47.741Z,16.20
2022-12-19T17:47:19.857Z,16.20
2022-12-19T17:49:48.257Z,16.20
2022-12-19T17:52:19.967Z,16.20
2022-12-19T17:54:47.494Z,16.20
2022-12-19T17:57:16.190Z,16.20
2022-12-19T17:59:43.533Z,16.20
2022-12-19T18:02:28.689Z,16.20
2022-12-19T18:04:58.233Z,16.10
2022-12-19T18:07:25.271Z,15.90
2022-12-19T18:09:52.232Z,16.00
2022-12-19T18:12:19.397Z,16.00
2022-12-19T18:14:46.443Z,16.10
2022-12-19T18:17:17.579Z,16.00
2022-12-19T18:19:44.596Z,16.10
2022-12-19T18:22:14.758Z,16.10
2022-12-19T18:24:42.166Z,16.10
2022-12-19T18:27:09.288Z,16.10
2022-12-19T18:29:37.240Z,16.10
2022-12-19T18:32:04.533Z,16.10
2022-12-19T18:34:36.201Z,16.00
2022-12-19T18:37:05.616Z,15.90
2022-12-19T18:39:33.656Z,16.00
2022-12-19T18:42:00.663Z,16.10
2022-12-19T18:44:27.642Z,16.20
2022-12-19T18:46:54.629Z,16.30
2022-12-19T18:49:22.946Z,16.40
2022-12-19T18:51:50.315Z,16.30
2022-12-19T18:54:19.988Z,16.30
2022-12-19T18:56:47.348Z,16.40
2022-12-19T18:59:15.043Z,16.40
2022-12-19T19:01:44.583Z,16.40
2022-12-19T19:04:15.139Z,16.40
2022-12-19T19:06:50.453Z,16.40
2022-12-19T19:09:20.059Z,16.40
2022-12-19T19:12:06.143Z,16.50
2022-12-19T19:14:33.048Z,16.30
2022-12-19T19:17:01.371Z,16.30
2022-12-19T19:19:28.425Z,16.20
2022-12-19T19:21:58.184Z,15.90
2022-12-19T19:24:25.465Z,15.80
2022-12-19T19:26:52.457Z,15.90
2022-12-19T19:29:19.885Z,16.00
2022-12-19T19:31:50.233Z,16.10
2022-12-19T19:34:31.708Z,16.10
2022-12-19T19:37:02.285Z,16.10
2022-12-19T19:39:32.978Z,16.20
2022-12-19T19:42:01.267Z,16.30
2022-12-19T19:44:28.860Z,16.30
2022-12-19T19:46:56.045Z,16.40
2022-12-19T19:49:23.587Z,16.40
2022-12-19T19:51:50.557Z,16.50
2022-12-19T19:54:17.753Z,16.40
2022-12-19T19:56:44.699Z,16.30
2022-12-19T19:59:11.608Z,16.30
2022-12-19T20:01:38.798Z,16.40
2022-12-19T20:04:06.102Z,16.50
2022-12-19T20:06:33.238Z,16.40
2022-12-19T20:09:00.172Z,16.40
2022-12-19T20:11:27.137Z,16.40
2022-12-19T20:13:54.121Z,16.50
2022-12-19T20:16:21.241Z,16.50
2022-12-19T20:18:52.766Z,16.50
2022-12-19T20:21:20.548Z,16.60
2022-12-19T20:23:47.733Z,16.60
2022-12-19T20:26:16.508Z,16.60
2022-12-19T20:28:48.823Z,16.50
2022-12-19T20:31:18.527Z,16.60
2022-12-19T20:33:46.417Z,16.70
2022-12-19T20:36:14.255Z,16.70
2022-12-19T20:38:41.689Z,16.70
2022-12-19T20:41:09.053Z,16.80
2022-12-19T20:43:38.535Z,16.80
2022-12-19T20:46:16.789Z,16.80
2022-12-19T20:48:45.013Z,16.80
2022-12-19T20:51:13.846Z,16.60
2022-12-19T20:53:41.704Z,16.50
2022-12-19T20:56:11.998Z,16.60
2022-12-19T20:58:39.075Z,16.60
2022-12-19T21:01:12.410Z,16.70
2022-12-19T21:03:40.504Z,17.00
2022-12-19T21:06:14.161Z,16.80
2022-12-19T21:08:45.701Z,16.90
2022-12-19T21:11:15.680Z,16.90
2022-12-19T21:13:43.088Z,16.80
2022-12-19T21:16:14.010Z,16.90
2022-12-19T21:18:42.882Z,16.90
2022-12-19T21:21:18.212Z,16.90
2022-12-19T21:23:45.994Z,17.00
2022-12-19T21:26:13.160Z,16.90
2022-12-19T21:28:40.526Z,16.90
2022-12-19T21:31:20.803Z,16.90
2022-12-19T21:33:48.510Z,17.00
2022-12-19T21:36:20.697Z,17.00
2022-12-19T21:38:49.837Z,17.00
2022-12-19T21:41:18.808Z,17.00
2022-12-19T21:43:48.987Z,17.00
2022-12-19T21:46:17.977Z,16.90
2022-12-19T21:48:47.561Z,16.90
2022-12-19T21:51:16.494Z,16.90
2022-12-19T21:53:43.538Z,16.90
2022-12-19T21:56:26.975Z,16.90
2022-12-19T21:58:56.703Z,17.00
2022-12-19T22:01:27.964Z,16.90
2022-12-19T22:04:06.388Z,16.90
2022-12-19T22:06:35.783Z,16.90
2022-12-19T22:09:04.475Z,17.00
2022-12-19T22:11:31.551Z,16.90
2022-12-19T22:14:00.325Z,16.90
2022-12-19T22:16:28.181Z,16.90
2022-12-19T22:18:56.478Z,17.00
2022-12-19T22:21:26.416Z,17.10
2022-12-19T22:23:59.812Z,17.30
2022-12-19T22:26:28.750Z,17.30
2022-12-19T22:28:56.971Z,17.30
2022-12-19T22:31:33.289Z,17.20
2022-12-19T22:34:05.605Z,17.30
2022-12-19T22:36:35.899Z,17.30
2022-12-19T22:39:05.727Z,17.40
2022-12-19T22:41:34.574Z,17.40
2022-12-19T22:44:02.014Z,17.50
2022-12-19T22:46:34.857Z,17.60
2022-12-19T22:49:04.801Z,17.40
2022-12-19T22:51:36.743Z,17.40
2022-12-19T22:54:05.488Z,17.40
2022-12-19T22:56:33.701Z,17.40
2022-12-19T22:59:03.806Z,17.50
2022-12-19T23:01:37.038Z,17.50
2022-12-19T23:04:05.849Z,17.40
2022-12-19T23:06:35.107Z,17.40
2022-12-19T23:09:02.663Z,17.40
2022-12-19T23:11:35.444Z,17.30
2022-12-19T23:14:04.903Z,17.30
2022-12-19T23:16:31.887Z,17.30
2022-12-19T23:18:58.963Z,17.30
2022-12-19T23:21:26.809Z,17.30
2022-12-19T23:23:55.369Z,17.30
2022-12-19T23:26:26.524Z,17.30
2022-12-19T23:28:59.448Z,17.30
2022-12-19T23:31:27.395Z,17.40
2022-12-19T23:33:55.116Z,17.30
2022-12-19T23:36:45.092Z,17.20
2022-12-19T23:39:11.128Z,17.20
2022-12-19T23:41:38.555Z,17.20
2022-12-19T23:44:05.669Z,17.30
2022-12-19T23:46:32.658Z,17.30
2022-12-19T23:48:59.860Z,17.30
2022-12-19T23:51:27.976Z,17.20
2022-12-19T23:53:56.257Z,17.30
2022-12-19T23:56:28.520Z,17.20
2022-12-19T23:58:56.477Z,17.30
